sensor_id;sensor_type;location;lat;lon;timestamp;temperature;humidity
29207;DHT22;16247;50.840;4.382;2022-11-20T00:01:07;5.50;99.90
29207;DHT22;16247;50.840;4.382;2022-11-20T00:03:33;5.60;99.90
29207;DHT22;16247;50.840;4.382;2022-11-20T00:06:07;5.60;99.90
29207;DHT22;16247;50.840;4.382;2022-11-20T00:08:34;5.30;99.90
29207;DHT22;16247;50.840;4.382;2022-11-20T00:11:14;5.20;99.90
29207;DHT22;16247;50.840;4.382;2022-11-20T00:13:41;5.40;99.90
29207;DHT22;16247;50.840;4.382;2022-11-20T00:16:09;5.40;99.90
29207;DHT22;16247;50.840;4.382;2022-11-20T00:18:35;5.50;99.90
29207;DHT22;16247;50.840;4.382;2022-11-20T00:21:07;5.60;99.90
29207;DHT22;16247;50.840;4.382;2022-11-20T00:23:33;5.40;99.90
29207;DHT22;16247;50.840;4.382;2022-11-20T00:26:04;5.40;99.90
29207;DHT22;16247;50.840;4.382;2022-11-20T00:28:30;5.60;99.90
29207;DHT22;16247;50.840;4.382;2022-11-20T00:31:04;5.30;99.90
29207;DHT22;16247;50.840;4.382;2022-11-20T00:36:51;5.20;99.90
29207;DHT22;16247;50.840;4.382;2022-11-20T00:42:39;5.20;99.90
29207;DHT22;16247;50.840;4.382;2022-11-20T00:45:05;5.30;99.90
29207;DHT22;16247;50.840;4.382;2022-11-20T00:47:31;5.10;99.90
29207;DHT22;16247;50.840;4.382;2022-11-20T00:49:56;5.20;99.90
29207;DHT22;16247;50.840;4.382;2022-11-20T00:52:23;5.10;99.90
29207;DHT22;16247;50.840;4.382;2022-11-20T00:54:49;5.10;99.90
29207;DHT22;16247;50.840;4.382;2022-11-20T00:57:14;5.10;99.90
29207;DHT22;16247;50.840;4.382;2022-11-20T00:59:40;5.00;99.90
29207;DHT22;16247;50.840;4.382;2022-11-20T01:02:08;5.00;99.90
29207;DHT22;16247;50.840;4.382;2022-11-20T01:04:36;5.00;99.90
29207;DHT22;16247;50.840;4.382;2022-11-20T01:07:03;5.00;99.90
29207;DHT22;16247;50.840;4.382;2022-11-20T01:09:30;5.30;99.90
29207;DHT22;16247;50.840;4.382;2022-11-20T01:11:57;5.10;99.90
29207;DHT22;16247;50.840;4.382;2022-11-20T01:14:22;5.00;99.90
29207;DHT22;16247;50.840;4.382;2022-11-20T01:16:50;5.10;99.90
29207;DHT22;16247;50.840;4.382;2022-11-20T01:19:21;5.20;99.90
29207;DHT22;16247;50.840;4.382;2022-11-20T01:21:52;5.10;99.90
29207;DHT22;16247;50.840;4.382;2022-11-20T01:24:20;5.30;99.90
29207;DHT22;16247;50.840;4.382;2022-11-20T01:26:48;5.20;99.90
29207;DHT22;16247;50.840;4.382;2022-11-20T01:29:18;5.10;99.90
29207;DHT22;16247;50.840;4.382;2022-11-20T01:31:46;5.00;99.90
29207;DHT22;16247;50.840;4.382;2022-11-20T01:34:17;5.30;99.90
29207;DHT22;16247;50.840;4.382;2022-11-20T01:36:43;5.30;99.90
29207;DHT22;16247;50.840;4.382;2022-11-20T01:39:17;5.10;99.90
29207;DHT22;16247;50.840;4.382;2022-11-20T01:41:44;5.20;99.90
29207;DHT22;16247;50.840;4.382;2022-11-20T01:47:21;5.40;99.90
29207;DHT22;16247;50.840;4.382;2022-11-20T01:50:22;5.30;99.90
29207;DHT22;16247;50.840;4.382;2022-11-20T01:52:56;5.20;99.90
29207;DHT22;16247;50.840;4.382;2022-11-20T01:55:26;5.10;99.90
29207;DHT22;16247;50.840;4.382;2022-11-20T01:57:52;5.00;99.90
29207;DHT22;16247;50.840;4.382;2022-11-20T02:00:20;5.00;99.90
29207;DHT22;16247;50.840;4.382;2022-11-20T02:02:50;4.90;99.90
29207;DHT22;16247;50.840;4.382;2022-11-20T02:05:25;5.00;99.90
29207;DHT22;16247;50.840;4.382;2022-11-20T02:07:54;5.00;99.90
29207;DHT22;16247;50.840;4.382;2022-11-20T02:10:21;5.40;99.90
29207;DHT22;16247;50.840;4.382;2022-11-20T02:12:47;5.20;99.90
29207;DHT22;16247;50.840;4.382;2022-11-20T02:15:33;5.30;99.90
29207;DHT22;16247;50.840;4.382;2022-11-20T02:17:59;5.40;99.90
29207;DHT22;16247;50.840;4.382;2022-11-20T02:20:25;5.30;99.90
29207;DHT22;16247;50.840;4.382;2022-11-20T02:22:58;5.50;99.90
29207;DHT22;16247;50.840;4.382;2022-11-20T02:25:26;5.50;99.90
29207;DHT22;16247;50.840;4.382;2022-11-20T02:27:54;5.30;99.90
29207;DHT22;16247;50.840;4.382;2022-11-20T02:30:19;5.30;99.90
29207;DHT22;16247;50.840;4.382;2022-11-20T02:32:45;5.00;99.90
29207;DHT22;16247;50.840;4.382;2022-11-20T02:37:50;4.80;99.90
29207;DHT22;16247;50.840;4.382;2022-11-20T02:40:18;4.80;99.90
29207;DHT22;16247;50.840;4.382;2022-11-20T02:42:44;4.90;99.90
29207;DHT22;16247;50.840;4.382;2022-11-20T02:45:10;4.70;99.90
29207;DHT22;16247;50.840;4.382;2022-11-20T02:47:36;4.80;99.90
29207;DHT22;16247;50.840;4.382;2022-11-20T02:50:02;4.90;99.90
29207;DHT22;16247;50.840;4.382;2022-11-20T02:52:28;4.90;99.90
29207;DHT22;16247;50.840;4.382;2022-11-20T02:54:54;4.90;99.90
29207;DHT22;16247;50.840;4.382;2022-11-20T02:57:20;4.70;99.90
29207;DHT22;16247;50.840;4.382;2022-11-20T02:59:45;4.80;99.90
29207;DHT22;16247;50.840;4.382;2022-11-20T03:02:11;5.00;99.90
29207;DHT22;16247;50.840;4.382;2022-11-20T03:04:37;5.00;99.90
29207;DHT22;16247;50.840;4.382;2022-11-20T03:07:03;5.00;99.90
29207;DHT22;16247;50.840;4.382;2022-11-20T03:09:29;5.10;99.90
29207;DHT22;16247;50.840;4.382;2022-11-20T03:11:54;5.10;99.90
29207;DHT22;16247;50.840;4.382;2022-11-20T03:14:20;5.20;99.90
29207;DHT22;16247;50.840;4.382;2022-11-20T03:16:46;5.20;99.90
29207;DHT22;16247;50.840;4.382;2022-11-20T03:19:12;5.20;99.90
29207;DHT22;16247;50.840;4.382;2022-11-20T03:21:38;5.40;99.90
29207;DHT22;16247;50.840;4.382;2022-11-20T03:24:05;5.30;99.90
29207;DHT22;16247;50.840;4.382;2022-11-20T03:26:32;5.20;99.90
29207;DHT22;16247;50.840;4.382;2022-11-20T03:28:59;5.10;99.90
29207;DHT22;16247;50.840;4.382;2022-11-20T03:31:28;5.40;99.90
29207;DHT22;16247;50.840;4.382;2022-11-20T03:33:55;5.30;99.90
29207;DHT22;16247;50.840;4.382;2022-11-20T03:36:21;5.40;99.90
29207;DHT22;16247;50.840;4.382;2022-11-20T03:38:47;5.20;99.90
29207;DHT22;16247;50.840;4.382;2022-11-20T03:41:18;5.30;99.90
29207;DHT22;16247;50.840;4.382;2022-11-20T03:43:49;5.30;99.90
29207;DHT22;16247;50.840;4.382;2022-11-20T03:46:16;5.30;99.90
29207;DHT22;16247;50.840;4.382;2022-11-20T03:48:42;5.30;99.90
29207;DHT22;16247;50.840;4.382;2022-11-20T03:54:30;5.40;99.90
29207;DHT22;16247;50.840;4.382;2022-11-20T03:57:04;5.30;99.90
29207;DHT22;16247;50.840;4.382;2022-11-20T03:59:30;5.30;99.90
29207;DHT22;16247;50.840;4.382;2022-11-20T04:01:55;5.40;99.90
29207;DHT22;16247;50.840;4.382;2022-11-20T04:04:21;5.40;99.90
29207;DHT22;16247;50.840;4.382;2022-11-20T04:06:47;5.70;99.90
29207;DHT22;16247;50.840;4.382;2022-11-20T04:09:12;5.60;99.90
29207;DHT22;16247;50.840;4.382;2022-11-20T04:11:40;5.70;99.90
29207;DHT22;16247;50.840;4.382;2022-11-20T04:14:11;5.70;99.90
29207;DHT22;16247;50.840;4.382;2022-11-20T04:16:37;5.50;99.90
29207;DHT22;16247;50.840;4.382;2022-11-20T04:19:06;5.40;99.90
29207;DHT22;16247;50.840;4.382;2022-11-20T04:21:32;5.40;99.90
29207;DHT22;16247;50.840;4.382;2022-11-20T04:23:59;5.40;99.90
29207;DHT22;16247;50.840;4.382;2022-11-20T04:26:26;5.50;99.90
29207;DHT22;16247;50.840;4.382;2022-11-20T04:28:53;5.50;99.90
29207;DHT22;16247;50.840;4.382;2022-11-20T04:31:23;5.30;99.90
29207;DHT22;16247;50.840;4.382;2022-11-20T04:33:48;5.30;99.90
29207;DHT22;16247;50.840;4.382;2022-11-20T04:36:17;5.40;99.90
29207;DHT22;16247;50.840;4.382;2022-11-20T04:38:44;5.60;99.90
29207;DHT22;16247;50.840;4.382;2022-11-20T04:41:19;5.50;99.90
29207;DHT22;16247;50.840;4.382;2022-11-20T04:43:50;5.70;99.90
29207;DHT22;16247;50.840;4.382;2022-11-20T04:46:20;5.70;99.90
29207;DHT22;16247;50.840;4.382;2022-11-20T04:48:47;5.50;99.90
29207;DHT22;16247;50.840;4.382;2022-11-20T04:51:13;5.40;99.90
29207;DHT22;16247;50.840;4.382;2022-11-20T04:53:38;5.40;99.90
29207;DHT22;16247;50.840;4.382;2022-11-20T04:56:09;5.40;99.90
29207;DHT22;16247;50.840;4.382;2022-11-20T04:58:36;5.50;99.90
29207;DHT22;16247;50.840;4.382;2022-11-20T05:01:16;5.50;99.90
29207;DHT22;16247;50.840;4.382;2022-11-20T05:03:43;5.60;99.90
29207;DHT22;16247;50.840;4.382;2022-11-20T05:06:10;5.50;99.90
29207;DHT22;16247;50.840;4.382;2022-11-20T05:08:36;5.50;99.90
29207;DHT22;16247;50.840;4.382;2022-11-20T05:11:10;5.60;99.90
29207;DHT22;16247;50.840;4.382;2022-11-20T05:13:39;5.80;99.90
29207;DHT22;16247;50.840;4.382;2022-11-20T05:16:12;6.10;99.90
29207;DHT22;16247;50.840;4.382;2022-11-20T05:18:39;5.90;99.90
29207;DHT22;16247;50.840;4.382;2022-11-20T05:21:07;5.80;99.90
29207;DHT22;16247;50.840;4.382;2022-11-20T05:23:33;5.80;99.90
29207;DHT22;16247;50.840;4.382;2022-11-20T05:26:00;5.70;99.90
29207;DHT22;16247;50.840;4.382;2022-11-20T05:28:27;6.00;99.90
29207;DHT22;16247;50.840;4.382;2022-11-20T05:30:53;6.00;99.90
29207;DHT22;16247;50.840;4.382;2022-11-20T05:33:19;5.90;99.90
29207;DHT22;16247;50.840;4.382;2022-11-20T05:35:45;5.90;99.90
29207;DHT22;16247;50.840;4.382;2022-11-20T05:38:11;5.90;99.90
29207;DHT22;16247;50.840;4.382;2022-11-20T05:40:37;5.80;99.90
29207;DHT22;16247;50.840;4.382;2022-11-20T05:43:03;5.90;99.90
29207;DHT22;16247;50.840;4.382;2022-11-20T05:45:29;5.90;99.90
29207;DHT22;16247;50.840;4.382;2022-11-20T05:47:59;6.10;99.90
29207;DHT22;16247;50.840;4.382;2022-11-20T05:50:27;6.20;99.90
29207;DHT22;16247;50.840;4.382;2022-11-20T05:52:53;6.40;99.90
29207;DHT22;16247;50.840;4.382;2022-11-20T05:55:19;6.20;99.90
29207;DHT22;16247;50.840;4.382;2022-11-20T05:57:45;5.90;99.90
29207;DHT22;16247;50.840;4.382;2022-11-20T06:00:11;5.80;99.90
29207;DHT22;16247;50.840;4.382;2022-11-20T06:02:37;5.80;99.90
29207;DHT22;16247;50.840;4.382;2022-11-20T06:05:02;5.90;99.90
29207;DHT22;16247;50.840;4.382;2022-11-20T06:07:28;5.80;99.90
29207;DHT22;16247;50.840;4.382;2022-11-20T06:09:54;6.10;99.90
29207;DHT22;16247;50.840;4.382;2022-11-20T06:12:20;6.30;99.90
29207;DHT22;16247;50.840;4.382;2022-11-20T06:14:46;6.10;99.90
29207;DHT22;16247;50.840;4.382;2022-11-20T06:17:11;6.30;99.90
29207;DHT22;16247;50.840;4.382;2022-11-20T06:19:37;6.00;99.90
29207;DHT22;16247;50.840;4.382;2022-11-20T06:22:03;6.00;99.90
29207;DHT22;16247;50.840;4.382;2022-11-20T06:24:29;6.00;99.90
29207;DHT22;16247;50.840;4.382;2022-11-20T06:26:55;6.20;99.90
29207;DHT22;16247;50.840;4.382;2022-11-20T06:29:22;6.30;99.90
29207;DHT22;16247;50.840;4.382;2022-11-20T06:31:49;6.40;99.90
29207;DHT22;16247;50.840;4.382;2022-11-20T06:34:18;6.50;99.90
29207;DHT22;16247;50.840;4.382;2022-11-20T06:36:44;6.40;99.90
29207;DHT22;16247;50.840;4.382;2022-11-20T06:39:11;6.10;99.90
29207;DHT22;16247;50.840;4.382;2022-11-20T06:41:36;6.10;99.90
29207;DHT22;16247;50.840;4.382;2022-11-20T06:44:04;6.20;99.90
29207;DHT22;16247;50.840;4.382;2022-11-20T06:46:33;6.00;99.90
29207;DHT22;16247;50.840;4.382;2022-11-20T06:48:59;5.80;99.90
29207;DHT22;16247;50.840;4.382;2022-11-20T06:51:25;5.90;99.90
29207;DHT22;16247;50.840;4.382;2022-11-20T06:53:53;6.00;99.90
29207;DHT22;16247;50.840;4.382;2022-11-20T06:56:22;6.10;99.90
29207;DHT22;16247;50.840;4.382;2022-11-20T06:58:50;6.10;99.90
29207;DHT22;16247;50.840;4.382;2022-11-20T07:01:16;6.20;99.90
29207;DHT22;16247;50.840;4.382;2022-11-20T07:03:42;6.10;99.90
29207;DHT22;16247;50.840;4.382;2022-11-20T07:06:08;6.10;99.90
29207;DHT22;16247;50.840;4.382;2022-11-20T07:08:34;6.30;99.90
29207;DHT22;16247;50.840;4.382;2022-11-20T07:11:07;6.30;99.90
29207;DHT22;16247;50.840;4.382;2022-11-20T07:16:55;6.60;99.90
29207;DHT22;16247;50.840;4.382;2022-11-20T07:19:20;6.60;99.90
29207;DHT22;16247;50.840;4.382;2022-11-20T07:21:46;6.70;99.90
29207;DHT22;16247;50.840;4.382;2022-11-20T07:24:13;6.80;99.90
29207;DHT22;16247;50.840;4.382;2022-11-20T07:26:38;6.80;99.90
29207;DHT22;16247;50.840;4.382;2022-11-20T07:29:07;7.00;99.90
29207;DHT22;16247;50.840;4.382;2022-11-20T07:31:33;7.10;99.90
29207;DHT22;16247;50.840;4.382;2022-11-20T07:33:59;7.10;99.90
29207;DHT22;16247;50.840;4.382;2022-11-20T07:36:26;6.90;99.90
29207;DHT22;16247;50.840;4.382;2022-11-20T07:38:54;6.90;99.90
29207;DHT22;16247;50.840;4.382;2022-11-20T07:41:20;7.00;99.90
29207;DHT22;16247;50.840;4.382;2022-11-20T07:43:46;7.10;99.90
29207;DHT22;16247;50.840;4.382;2022-11-20T07:46:11;6.90;99.90
29207;DHT22;16247;50.840;4.382;2022-11-20T07:48:37;7.20;99.90
29207;DHT22;16247;50.840;4.382;2022-11-20T07:51:04;7.20;99.90
29207;DHT22;16247;50.840;4.382;2022-11-20T07:53:29;7.40;99.90
29207;DHT22;16247;50.840;4.382;2022-11-20T07:56:24;7.20;99.90
29207;DHT22;16247;50.840;4.382;2022-11-20T07:58:53;7.20;99.90
29207;DHT22;16247;50.840;4.382;2022-11-20T08:01:18;7.20;99.90
29207;DHT22;16247;50.840;4.382;2022-11-20T08:03:44;7.20;99.90
29207;DHT22;16247;50.840;4.382;2022-11-20T08:06:10;7.30;99.90
29207;DHT22;16247;50.840;4.382;2022-11-20T08:08:35;7.40;99.90
29207;DHT22;16247;50.840;4.382;2022-11-20T08:11:01;7.40;99.90
29207;DHT22;16247;50.840;4.382;2022-11-20T08:13:49;7.40;99.90
29207;DHT22;16247;50.840;4.382;2022-11-20T08:16:35;7.30;99.90
29207;DHT22;16247;50.840;4.382;2022-11-20T08:19:01;7.30;99.90
29207;DHT22;16247;50.840;4.382;2022-11-20T08:21:30;7.50;99.90
29207;DHT22;16247;50.840;4.382;2022-11-20T08:23:59;7.50;99.90
29207;DHT22;16247;50.840;4.382;2022-11-20T08:26:28;7.70;99.90
29207;DHT22;16247;50.840;4.382;2022-11-20T08:28:57;7.80;99.90
29207;DHT22;16247;50.840;4.382;2022-11-20T08:31:27;7.70;99.90
29207;DHT22;16247;50.840;4.382;2022-11-20T08:33:54;7.80;99.90
29207;DHT22;16247;50.840;4.382;2022-11-20T08:36:21;7.60;99.90
29207;DHT22;16247;50.840;4.382;2022-11-20T08:41:29;7.80;99.90
29207;DHT22;16247;50.840;4.382;2022-11-20T08:44:04;8.00;99.90
29207;DHT22;16247;50.840;4.382;2022-11-20T08:46:37;7.80;99.90
29207;DHT22;16247;50.840;4.382;2022-11-20T08:49:10;7.80;99.90
29207;DHT22;16247;50.840;4.382;2022-11-20T08:51:40;8.10;99.90
29207;DHT22;16247;50.840;4.382;2022-11-20T08:54:07;8.10;99.90
29207;DHT22;16247;50.840;4.382;2022-11-20T08:56:33;8.00;99.90
29207;DHT22;16247;50.840;4.382;2022-11-20T08:59:04;7.80;99.90
29207;DHT22;16247;50.840;4.382;2022-11-20T09:01:29;7.70;99.90
29207;DHT22;16247;50.840;4.382;2022-11-20T09:03:56;8.00;99.90
29207;DHT22;16247;50.840;4.382;2022-11-20T09:06:27;8.20;99.90
29207;DHT22;16247;50.840;4.382;2022-11-20T09:08:53;8.10;99.90
29207;DHT22;16247;50.840;4.382;2022-11-20T09:11:20;8.50;99.90
29207;DHT22;16247;50.840;4.382;2022-11-20T09:13:46;8.50;99.90
29207;DHT22;16247;50.840;4.382;2022-11-20T09:16:17;8.40;99.90
29207;DHT22;16247;50.840;4.382;2022-11-20T09:18:44;8.40;99.90
29207;DHT22;16247;50.840;4.382;2022-11-20T09:21:14;8.40;99.90
29207;DHT22;16247;50.840;4.382;2022-11-20T09:23:43;8.40;99.90
29207;DHT22;16247;50.840;4.382;2022-11-20T09:26:11;8.60;99.90
29207;DHT22;16247;50.840;4.382;2022-11-20T09:28:37;8.80;99.90
29207;DHT22;16247;50.840;4.382;2022-11-20T09:31:23;8.60;99.90
29207;DHT22;16247;50.840;4.382;2022-11-20T09:33:50;8.60;99.90
29207;DHT22;16247;50.840;4.382;2022-11-20T09:36:16;8.80;99.90
29207;DHT22;16247;50.840;4.382;2022-11-20T09:38:47;9.00;99.90
29207;DHT22;16247;50.840;4.382;2022-11-20T09:50:31;9.00;99.90
29207;DHT22;16247;50.840;4.382;2022-11-20T09:56:30;9.20;99.90
29207;DHT22;16247;50.840;4.382;2022-11-20T09:59:05;9.10;99.90
29207;DHT22;16247;50.840;4.382;2022-11-20T10:01:37;9.30;99.90
29207;DHT22;16247;50.840;4.382;2022-11-20T10:04:10;9.30;99.90
29207;DHT22;16247;50.840;4.382;2022-11-20T10:09:39;9.40;99.90
29207;DHT22;16247;50.840;4.382;2022-11-20T10:26:43;9.60;99.90
29207;DHT22;16247;50.840;4.382;2022-11-20T10:39:10;10.00;99.90
29207;DHT22;16247;50.840;4.382;2022-11-20T10:41:44;10.20;99.90
29207;DHT22;16247;50.840;4.382;2022-11-20T10:44:36;10.00;99.90
29207;DHT22;16247;50.840;4.382;2022-11-20T10:47:33;10.30;99.90
29207;DHT22;16247;50.840;4.382;2022-11-20T10:50:04;10.00;99.90
29207;DHT22;16247;50.840;4.382;2022-11-20T10:53:08;10.20;99.90
29207;DHT22;16247;50.840;4.382;2022-11-20T10:55:50;10.10;99.90
29207;DHT22;16247;50.840;4.382;2022-11-20T10:58:52;10.00;99.90
29207;DHT22;16247;50.840;4.382;2022-11-20T11:01:29;10.00;99.90
29207;DHT22;16247;50.840;4.382;2022-11-20T11:03:55;9.80;99.90
29207;DHT22;16247;50.840;4.382;2022-11-20T11:06:40;10.10;99.90
29207;DHT22;16247;50.840;4.382;2022-11-20T11:09:17;10.00;99.90
29207;DHT22;16247;50.840;4.382;2022-11-20T11:12:07;10.00;99.90
29207;DHT22;16247;50.840;4.382;2022-11-20T11:14:43;10.00;99.90
29207;DHT22;16247;50.840;4.382;2022-11-20T11:20:04;10.30;99.90
29207;DHT22;16247;50.840;4.382;2022-11-20T11:22:46;10.20;99.90
29207;DHT22;16247;50.840;4.382;2022-11-20T11:25:39;10.30;99.90
29207;DHT22;16247;50.840;4.382;2022-11-20T11:28:21;10.20;99.90
29207;DHT22;16247;50.840;4.382;2022-11-20T11:30:53;10.30;99.90
29207;DHT22;16247;50.840;4.382;2022-11-20T11:33:31;10.20;99.90
29207;DHT22;16247;50.840;4.382;2022-11-20T11:36:03;10.20;99.90
29207;DHT22;16247;50.840;4.382;2022-11-20T11:38:50;10.20;99.90
29207;DHT22;16247;50.840;4.382;2022-11-20T11:41:25;10.00;99.90
29207;DHT22;16247;50.840;4.382;2022-11-20T11:43:56;10.10;99.90
29207;DHT22;16247;50.840;4.382;2022-11-20T11:47:00;10.20;99.90
29207;DHT22;16247;50.840;4.382;2022-11-20T11:49:29;10.10;99.90
29207;DHT22;16247;50.840;4.382;2022-11-20T11:52:15;10.10;99.90
29207;DHT22;16247;50.840;4.382;2022-11-20T11:55:01;9.80;99.90
29207;DHT22;16247;50.840;4.382;2022-11-20T12:01:03;9.60;99.90
29207;DHT22;16247;50.840;4.382;2022-11-20T12:03:39;9.60;99.90
29207;DHT22;16247;50.840;4.382;2022-11-20T12:06:30;9.60;99.90
29207;DHT22;16247;50.840;4.382;2022-11-20T12:09:07;9.80;99.90
29207;DHT22;16247;50.840;4.382;2022-11-20T12:16:52;9.60;99.90
29207;DHT22;16247;50.840;4.382;2022-11-20T12:19:39;9.50;99.90
29207;DHT22;16247;50.840;4.382;2022-11-20T12:34:35;9.20;99.90
29207;DHT22;16247;50.840;4.382;2022-11-20T12:39:49;9.00;99.90
29207;DHT22;16247;50.840;4.382;2022-11-20T12:42:31;9.00;99.90
29207;DHT22;16247;50.840;4.382;2022-11-20T12:45:31;9.10;99.90
29207;DHT22;16247;50.840;4.382;2022-11-20T12:51:28;9.00;99.90
29207;DHT22;16247;50.840;4.382;2022-11-20T13:02:44;9.40;99.90
29207;DHT22;16247;50.840;4.382;2022-11-20T13:08:02;9.70;99.90
29207;DHT22;16247;50.840;4.382;2022-11-20T13:13:43;9.40;99.90
29207;DHT22;16247;50.840;4.382;2022-11-20T13:16:17;9.40;99.90
29207;DHT22;16247;50.840;4.382;2022-11-20T13:18:55;9.20;99.90
29207;DHT22;16247;50.840;4.382;2022-11-20T13:26:46;9.20;99.90
29207;DHT22;16247;50.840;4.382;2022-11-20T13:29:34;9.20;99.90
29207;DHT22;16247;50.840;4.382;2022-11-20T13:34:39;9.00;99.90
29207;DHT22;16247;50.840;4.382;2022-11-20T13:37:04;9.10;99.90
29207;DHT22;16247;50.840;4.382;2022-11-20T13:39:35;8.90;99.90
29207;DHT22;16247;50.840;4.382;2022-11-20T13:45:31;8.90;99.90
29207;DHT22;16247;50.840;4.382;2022-11-20T13:48:22;8.90;99.90
29207;DHT22;16247;50.840;4.382;2022-11-20T13:53:48;9.00;99.90
29207;DHT22;16247;50.840;4.382;2022-11-20T13:59:39;9.10;99.90
29207;DHT22;16247;50.840;4.382;2022-11-20T14:02:16;9.10;99.90
29207;DHT22;16247;50.840;4.382;2022-11-20T14:04:48;9.40;99.90
29207;DHT22;16247;50.840;4.382;2022-11-20T14:07:16;9.30;99.90
29207;DHT22;16247;50.840;4.382;2022-11-20T14:09:54;9.50;99.90
29207;DHT22;16247;50.840;4.382;2022-11-20T14:12:33;9.30;99.90
29207;DHT22;16247;50.840;4.382;2022-11-20T14:15:02;9.10;99.90
29207;DHT22;16247;50.840;4.382;2022-11-20T14:17:35;9.10;99.90
29207;DHT22;16247;50.840;4.382;2022-11-20T14:20:07;9.10;99.90
29207;DHT22;16247;50.840;4.382;2022-11-20T14:22:37;9.00;99.90
29207;DHT22;16247;50.840;4.382;2022-11-20T14:27:40;9.00;99.90
29207;DHT22;16247;50.840;4.382;2022-11-20T14:30:19;9.00;99.90
29207;DHT22;16247;50.840;4.382;2022-11-20T14:32:46;9.20;99.90
29207;DHT22;16247;50.840;4.382;2022-11-20T14:35:33;9.00;99.90
29207;DHT22;16247;50.840;4.382;2022-11-20T14:38:01;9.20;99.90
29207;DHT22;16247;50.840;4.382;2022-11-20T14:40:34;9.00;99.90
29207;DHT22;16247;50.840;4.382;2022-11-20T14:45:43;9.00;99.90
29207;DHT22;16247;50.840;4.382;2022-11-20T14:48:11;9.10;99.90
29207;DHT22;16247;50.840;4.382;2022-11-20T14:50:38;9.00;99.90
29207;DHT22;16247;50.840;4.382;2022-11-20T14:53:04;9.00;99.90
29207;DHT22;16247;50.840;4.382;2022-11-20T14:55:35;9.10;99.90
29207;DHT22;16247;50.840;4.382;2022-11-20T14:58:06;9.20;99.90
29207;DHT22;16247;50.840;4.382;2022-11-20T15:00:33;9.00;99.90
29207;DHT22;16247;50.840;4.382;2022-11-20T15:02:59;9.00;99.90
29207;DHT22;16247;50.840;4.382;2022-11-20T15:05:45;9.00;99.90
29207;DHT22;16247;50.840;4.382;2022-11-20T15:08:12;9.00;99.90
29207;DHT22;16247;50.840;4.382;2022-11-20T15:10:39;9.00;99.90
29207;DHT22;16247;50.840;4.382;2022-11-20T15:13:18;9.10;99.90
29207;DHT22;16247;50.840;4.382;2022-11-20T15:15:50;9.10;99.90
29207;DHT22;16247;50.840;4.382;2022-11-20T15:20:49;9.20;99.90
29207;DHT22;16247;50.840;4.382;2022-11-20T15:23:16;9.30;99.90
29207;DHT22;16247;50.840;4.382;2022-11-20T15:25:46;9.10;99.90
29207;DHT22;16247;50.840;4.382;2022-11-20T15:28:34;9.10;99.90
29207;DHT22;16247;50.840;4.382;2022-11-20T15:31:06;9.20;99.90
29207;DHT22;16247;50.840;4.382;2022-11-20T15:33:32;9.20;99.90
29207;DHT22;16247;50.840;4.382;2022-11-20T15:35:59;9.30;99.90
29207;DHT22;16247;50.840;4.382;2022-11-20T15:38:31;9.40;99.90
29207;DHT22;16247;50.840;4.382;2022-11-20T15:40:57;9.30;99.90
29207;DHT22;16247;50.840;4.382;2022-11-20T15:43:22;9.30;99.90
29207;DHT22;16247;50.840;4.382;2022-11-20T15:45:58;9.30;99.90
29207;DHT22;16247;50.840;4.382;2022-11-20T15:48:51;9.40;99.90
29207;DHT22;16247;50.840;4.382;2022-11-20T15:51:41;9.40;99.90
29207;DHT22;16247;50.840;4.382;2022-11-20T15:54:10;9.30;99.90
29207;DHT22;16247;50.840;4.382;2022-11-20T15:56:38;9.40;99.90
29207;DHT22;16247;50.840;4.382;2022-11-20T15:59:06;9.60;99.90
29207;DHT22;16247;50.840;4.382;2022-11-20T16:01:32;9.60;99.90
29207;DHT22;16247;50.840;4.382;2022-11-20T16:03:59;9.40;99.90
29207;DHT22;16247;50.840;4.382;2022-11-20T16:06:25;9.40;99.90
29207;DHT22;16247;50.840;4.382;2022-11-20T16:08:50;9.40;99.90
29207;DHT22;16247;50.840;4.382;2022-11-20T16:11:17;9.60;99.90
29207;DHT22;16247;50.840;4.382;2022-11-20T16:13:43;9.70;99.90
29207;DHT22;16247;50.840;4.382;2022-11-20T16:16:33;9.70;99.90
29207;DHT22;16247;50.840;4.382;2022-11-20T16:19:00;9.70;99.90
29207;DHT22;16247;50.840;4.382;2022-11-20T16:21:26;9.60;99.90
29207;DHT22;16247;50.840;4.382;2022-11-20T16:24:09;9.60;99.90
29207;DHT22;16247;50.840;4.382;2022-11-20T16:26:35;9.70;99.90
29207;DHT22;16247;50.840;4.382;2022-11-20T16:29:05;9.60;99.90
29207;DHT22;16247;50.840;4.382;2022-11-20T16:31:31;9.70;99.90
29207;DHT22;16247;50.840;4.382;2022-11-20T16:34:00;9.70;99.90
29207;DHT22;16247;50.840;4.382;2022-11-20T16:36:27;9.70;99.90
29207;DHT22;16247;50.840;4.382;2022-11-20T16:38:55;9.60;99.90
29207;DHT22;16247;50.840;4.382;2022-11-20T16:41:25;9.80;99.90
29207;DHT22;16247;50.840;4.382;2022-11-20T16:43:57;9.70;99.90
29207;DHT22;16247;50.840;4.382;2022-11-20T16:46:30;9.70;99.90
29207;DHT22;16247;50.840;4.382;2022-11-20T16:49:05;9.70;99.90
29207;DHT22;16247;50.840;4.382;2022-11-20T16:51:36;9.70;99.90
29207;DHT22;16247;50.840;4.382;2022-11-20T16:54:07;9.80;99.90
29207;DHT22;16247;50.840;4.382;2022-11-20T16:59:46;9.80;99.90
29207;DHT22;16247;50.840;4.382;2022-11-20T17:02:15;9.80;99.90
29207;DHT22;16247;50.840;4.382;2022-11-20T17:04:41;9.90;99.90
29207;DHT22;16247;50.840;4.382;2022-11-20T17:07:07;9.80;99.90
29207;DHT22;16247;50.840;4.382;2022-11-20T17:09:34;9.90;99.90
29207;DHT22;16247;50.840;4.382;2022-11-20T17:12:03;10.00;99.90
29207;DHT22;16247;50.840;4.382;2022-11-20T17:14:32;9.80;99.90
29207;DHT22;16247;50.840;4.382;2022-11-20T17:17:02;9.90;99.90
29207;DHT22;16247;50.840;4.382;2022-11-20T17:19:27;10.00;99.90
29207;DHT22;16247;50.840;4.382;2022-11-20T17:21:53;10.10;99.90
29207;DHT22;16247;50.840;4.382;2022-11-20T17:24:19;10.00;99.90
29207;DHT22;16247;50.840;4.382;2022-11-20T17:26:47;9.90;99.90
29207;DHT22;16247;50.840;4.382;2022-11-20T17:29:17;10.00;99.90
29207;DHT22;16247;50.840;4.382;2022-11-20T17:31:49;9.90;99.90
29207;DHT22;16247;50.840;4.382;2022-11-20T17:34:17;10.00;99.90
29207;DHT22;16247;50.840;4.382;2022-11-20T17:36:43;10.00;99.90
29207;DHT22;16247;50.840;4.382;2022-11-20T17:39:15;10.00;99.90
29207;DHT22;16247;50.840;4.382;2022-11-20T17:41:41;10.00;99.90
29207;DHT22;16247;50.840;4.382;2022-11-20T17:44:11;10.10;99.90
29207;DHT22;16247;50.840;4.382;2022-11-20T17:46:40;10.00;99.90
29207;DHT22;16247;50.840;4.382;2022-11-20T17:49:07;10.00;99.90
29207;DHT22;16247;50.840;4.382;2022-11-20T17:51:34;10.00;99.90
29207;DHT22;16247;50.840;4.382;2022-11-20T17:54:02;9.80;99.90
29207;DHT22;16247;50.840;4.382;2022-11-20T17:56:31;9.90;99.90
29207;DHT22;16247;50.840;4.382;2022-11-20T17:59:20;9.80;99.90
29207;DHT22;16247;50.840;4.382;2022-11-20T18:01:47;9.80;99.90
29207;DHT22;16247;50.840;4.382;2022-11-20T18:04:12;9.70;99.90
29207;DHT22;16247;50.840;4.382;2022-11-20T18:06:39;9.70;99.90
29207;DHT22;16247;50.840;4.382;2022-11-20T18:09:06;9.70;99.90
29207;DHT22;16247;50.840;4.382;2022-11-20T18:11:34;9.60;99.90
29207;DHT22;16247;50.840;4.382;2022-11-20T18:14:01;9.50;99.90
29207;DHT22;16247;50.840;4.382;2022-11-20T18:16:49;9.30;99.90
29207;DHT22;16247;50.840;4.382;2022-11-20T18:19:19;9.40;99.90